• Join FlightAware (Why Join?)
  • Login
  • US Flag 
09:06PM EDT


 

Airport Tracker/Info


-or-


 

Live Flight TrackerFlight Track Log ✈ JBU1721 ✈ 02-Aug-2013 ✈ KMCO - MKJS / MBJ

Flight Track Log - Related Links

Times and Time Zones

All times are in EDT time to prevent confusion due to time zone crossing. See the JBU1721 flight status page for this flight to view local times or setup timezone preferences in your user account.

Time Position Orientation Groundspeed Altitude Reporting Facility
EDT Latitude Longitude Course Direction KTS MPH feet Rate Location/Type
02:52PM 28.4500 -81.3167 139° Southeast 158 182 700  Level Orlando TRACON
02:52PM 28.4667 -81.2833 60° Northeast 207 238 1,900 1,980 Climbing Orlando TRACON
02:53PM 28.5000 -81.2333 53° Northeast 234 269 4,400 2,700 Climbing Orlando TRACON
02:54PM 28.1070 -81.1893 134° Southeast  Level Estimated
02:54PM 28.4833 -81.1500 103° East 244 281 7,400  Level Orlando TRACON
02:55PM 27.9995 -81.1496 139° Southeast  Level Estimated
02:55PM 28.4667 -81.0667 103° East 291 335 9,700  Level Orlando TRACON
02:56PM 27.8919 -81.1100 139° Southeast  Level Estimated
02:57PM 27.7844 -81.0704 139° Southeast  Level Estimated
03:01PM 28.1740 -80.6820 103° East 377 434 19,600  Level FlightAware
03:01PM 28.1180 -80.6600 161° South 383 441 20,600 1,920 Climbing FlightAware
03:02PM 28.0700 -80.6410 161° South 378 435 21,600 1,560 Climbing FlightAware
03:02PM 28.0160 -80.6200 161° South 379 436 22,300 1,320 Climbing FlightAware
03:03PM 27.9590 -80.5980 161° South 391 450 23,100 1,260 Climbing FlightAware
03:04PM 27.8650 -80.5610 161° South 392 451 24,200 660 Climbing FlightAware
03:04PM 27.8110 -80.5390 160° South 392 451 24,200  Level FlightAware
03:05PM 27.7590 -80.5170 159° South 392 451 24,200  Level FlightAware
03:06PM 27.7070 -80.4960 160° South 392 451 24,200  Level FlightAware
03:06PM 27.6530 -80.4740 160° South 392 451 24,200  Level FlightAware
03:07PM 27.5840 -80.4450 160° South 392 451 24,200  Level FlightAware
03:08PM 27.5290 -80.4230 160° South 392 451 24,200 2,520 Level FlightAware
03:09PM 27.3080 -80.3400 162° South 412 474 28,900 3,180 Climbing FlightAware
03:10PM 27.2480 -80.2960 147° Southeast 402 463 30,000 2,040 Climbing FlightAware
03:10PM 27.2010 -80.2580 144° Southeast 392 451 31,200 1,980 Climbing FlightAware
03:10PM 27.1710 -80.2340 145° Southeast 382 440 31,700 780 Climbing FlightAware
03:11PM 27.0940 -80.1730 145° Southeast 400 460 32,200 540 Climbing FlightAware
03:12PM 27.0390 -80.1300 145° Southeast 400 460 32,500 480 Climbing FlightAware
03:12PM 26.9780 -80.0930 152° Southeast 408 470 32,800 480 Climbing FlightAware
03:13PM 26.9140 -80.0600 155° Southeast 424 488 33,100 480 Climbing FlightAware
03:14PM 26.8480 -80.0260 155° Southeast 422 486 33,400 480 Climbing FlightAware
03:14PM 26.7840 -79.9950 157° South 435 501 33,700 480 Climbing FlightAware
03:15PM 26.7190 -79.9710 162° South 434 499 34,000 540 Climbing FlightAware
03:15PM 26.6510 -79.9480 163° South 439 505 34,300 480 Climbing FlightAware
03:16PM 26.5800 -79.9240 163° South 453 521 34,600 780 Climbing FlightAware
03:17PM 26.5090 -79.8900 157° South 439 505 35,300 1,020 Climbing FlightAware
03:17PM 26.4530 -79.8680 161° South 437 503 35,800 660 Climbing FlightAware
03:18PM 26.3780 -79.8430 163° South 441 507 36,100 480 Climbing FlightAware
03:18PM 26.3080 -79.8200 164° South 451 519 36,400 480 Climbing FlightAware
03:19PM 26.2340 -79.7950 163° South 453 521 36,700 480 Climbing FlightAware
03:20PM 26.1630 -79.7710 163° South 453 521 37,000 180 Climbing FlightAware
03:20PM 26.0690 -79.7410 164° South 452 520 37,000  Level FlightAware
03:21PM 25.9830 -79.7210 168° South 444 511 37,000  Level FlightAware
03:21PM 25.9190 -79.7070 169° South 446 513 37,000  Level FlightAware
03:22PM 25.8670 -79.6950 168° South 446 513 37,000  Level FlightAware
03:23PM 25.7470 -79.6660 168° South 446 513 37,000  Level FlightAware
03:23PM 25.6800 -79.6500 168° South 445 512 37,000  Level FlightAware
03:24PM 25.6100 -79.6340 168° South 442 509 37,000  Level FlightAware
03:25PM 25.5420 -79.6180 168° South 443 510 37,000  Level FlightAware
03:25PM 25.4690 -79.6010 168° South 450 518 37,000  Level FlightAware
03:26PM 25.4080 -79.5870 168° South 454 522 37,000 60 Level FlightAware
03:26PM 25.3270 -79.5680 168° South 448 516 37,100 60 Climbing FlightAware
03:27PM 25.2560 -79.5510 168° South 448 516 37,100  Level FlightAware
03:27PM 25.1880 -79.5350 168° South 445 512 37,100 -120 Level FlightAware
03:28PM 25.1080 -79.5170 168° South 450 518 37,000 -120 Descending FlightAware
03:29PM 25.0370 -79.5000 168° South 446 513 37,000  Level FlightAware
03:29PM 24.9590 -79.4820 168° South 444 511 37,000  Level FlightAware
03:30PM 24.8890 -79.4660 168° South 443 510 37,000  Level FlightAware
03:31PM 24.8190 -79.4500 168° South 442 509 37,000  Level FlightAware
03:31PM 24.7130 -79.4250 168° South 440 506 37,000  Level FlightAware
03:32PM 24.6430 -79.4090 168° South 431 496 37,000  Level FlightAware
03:33PM 24.5700 -79.3920 168° South 430 495 37,000  Level FlightAware
03:33PM 24.5010 -79.3760 168° South 431 496 37,000  Level FlightAware
03:34PM 24.4260 -79.3590 168° South 431 496 37,000  Level FlightAware
03:34PM 24.3550 -79.3430 168° South 441 507 37,000  Level FlightAware
03:35PM 24.2920 -79.3280 168° South 442 509 37,000  Level FlightAware
03:35PM 24.2210 -79.3120 168° South 444 511 37,000  Level FlightAware
03:36PM 24.1470 -79.2950 168° South 446 513 37,000 60 Level FlightAware
03:37PM 24.0750 -79.2790 169° South 445 512 37,100 60 Climbing FlightAware
03:37PM 23.9910 -79.2590 168° South 442 509 37,100 -120 Level FlightAware
03:38PM 23.9250 -79.2440 168° South 442 509 37,000 -120 Descending FlightAware
03:39PM 23.8270 -79.2300 173° South 435 501 37,000  Level FlightAware
03:39PM 23.7590 -79.2270 178° South 434 499 37,000  Level FlightAware
03:40PM 23.6450 -79.2180 176° South 433 498 37,000  Level FlightAware
03:41PM 23.5760 -79.2130 176° South 432 497 37,000  Level FlightAware
03:42PM 23.4980 -79.2050 175° South 432 497 37,000  Level FlightAware
03:42PM 23.4300 -79.2000 176° South 433 498 37,000  Level FlightAware
03:43PM 23.3040 -79.1900 176° South 434 499 37,000  Level FlightAware
03:44PM 23.2410 -79.1840 175° South 434 499 37,000  Level FlightAware
03:44PM 23.1800 -79.1790 176° South 434 499 37,000  Level FlightAware
03:45PM 23.1180 -79.1730 175° South 434 499 37,000  Level FlightAware
03:46PM 23.0560 -79.1670 175° South 434 499 37,000  Level FlightAware
03:46PM 22.9930 -79.1610 175° South 434 499 37,000  Level FlightAware
03:47PM 22.9310 -79.1550 175° South 434 499 37,000  Level FlightAware
03:47PM 22.8670 -79.1490 175° South 434 499 37,000  Level FlightAware
03:48PM 22.8060 -79.1430 175° South 434 499 37,000  Level FlightAware
03:49PM 22.7430 -79.1370 175° South 434 499 37,000  Level FlightAware
03:49PM 22.6780 -79.1310 175° South 434 499 37,000  Level FlightAware
03:50PM 22.6150 -79.1250 175° South 434 499 37,000  Level FlightAware
03:50PM 22.5570 -79.1200 175° South 434 499 37,000  Level FlightAware
03:51PM 22.4940 -79.1140 175° South 434 499 37,000  Level FlightAware
03:52PM 22.4320 -79.1080 175° South 434 499 37,000  Level FlightAware
03:52PM 22.3700 -79.1020 175° South 434 499 37,000  Level FlightAware
03:55PM 22.1420 -79.0301 164° South  Level Estimated
03:56PM 22.0392 -78.9978 164° South  Level Estimated
03:57PM 21.9364 -78.9655 164° South  Level Estimated
03:58PM 21.8335 -78.9332 164° South  Level Estimated
03:59PM 21.7306 -78.9010 164° South  Level Estimated
04:00PM 21.6278 -78.8689 164° South  Level Estimated
04:01PM 21.5249 -78.8367 164° South  Level Estimated
04:02PM 21.4220 -78.8047 164° South  Level Estimated
04:03PM 21.3191 -78.7726 164° South  Level Estimated
04:04PM 21.2162 -78.7407 164° South  Level Estimated
04:05PM 21.1133 -78.7087 164° South  Level Estimated
04:06PM 21.0104 -78.6768 164° South  Level Estimated
04:07PM 20.9075 -78.6450 164° South  Level Estimated
04:08PM 20.8046 -78.6132 164° South  Level Estimated
04:09PM 20.7017 -78.5814 164° South  Level Estimated
04:10PM 20.5988 -78.5497 164° South  Level Estimated
04:11PM 20.4958 -78.5180 164° South  Level Estimated
04:12PM 20.3929 -78.4864 164° South  Level Estimated
04:13PM 20.2899 -78.4548 164° South  Level Estimated
04:14PM 20.1870 -78.4232 164° South  Level Estimated
04:15PM 20.0840 -78.3917 164° South  Level Estimated
04:16PM 19.9811 -78.3603 164° South  Level Estimated
04:17PM 19.8781 -78.3288 164° South  Level Estimated
04:18PM 19.7751 -78.2975 164° South  Level Estimated
04:19PM 19.6721 -78.2661 164° South  Level Estimated
04:20PM 19.5692 -78.2348 164° South  Level Estimated
04:21PM 19.4662 -78.2036 164° South  Level Estimated
04:22PM 19.3632 -78.1723 164° South  Level Estimated
04:23PM 19.2602 -78.1412 164° South  Level Estimated
04:24PM 19.1572 -78.1100 164° South  Level Estimated
04:25PM 19.0542 -78.0789 164° South  Level Estimated
04:26PM 18.9512 -78.0478 164° South  Level Estimated
04:27PM 18.8481 -78.0168 164° South  Level Estimated
04:28PM 18.7451 -77.9858 164° South  Level Estimated
04:29PM 18.6421 -77.9549 164° South  Level Estimated
04:30PM 18.5390 -77.9240 164° South  Level Estimated
04:31PM 18.5037 -77.9134 164° South  Level Estimated
04:32PM 18.5037 -77.9134 148° Southeast  Level Estimated
04:33PM 18.5037 -77.9134 148° Southeast  Level Estimated
04:34PM 18.5037 -77.9134 148° Southeast  Level Estimated
04:35PM 18.5037 -77.9134 148° Southeast  Level Estimated
04:36PM 18.5037 -77.9134 148° Southeast  Level Estimated
04:37PM 18.5037 -77.9134 148° Southeast  Level Estimated
04:38PM 18.5037 -77.9134 148° Southeast  Level Estimated
04:39PM 18.5037 -77.9134 148° Southeast  Level Estimated
04:40PM 18.5037 -77.9134 148° Southeast  Level Estimated